Time;durP1;ratioP1;P1;durP2;ratioP2;P2;SDS_P1;SDS_P2;PMS_P1;PMS_P2;Temp;Humidity;BMP_temperature;BMP_pressure;BME280_temperature;BME280_humidity;BME280_pressure;Samples;Min_cycle;Max_cycle;Signal;HPM_P1;HPM_P2
2022/11/01 00:01:22;;;;;;;0.25;0.20;;;23.50;46.40;;;;;;5031553;28;20024;-59
2022/11/01 00:03:49;;;;;;;0.80;0.20;;;24.00;48.30;;;;;;5030315;28;20021;-59
2022/11/01 00:06:17;;;;;;;0.20;0.15;;;24.50;49.30;;;;;;5031132;28;20033;-59
2022/11/01 00:08:44;;;;;;;0.10;0.10;;;24.60;45.10;;;;;;5029963;28;20029;-59
2022/11/01 00:11:13;;;;;;;0.32;0.30;;;24.60;45.40;;;;;;5030364;28;20119;-59
2022/11/01 00:13:41;;;;;;;0.75;0.10;;;24.80;46.30;;;;;;5026769;28;20544;-61
2022/11/01 00:16:08;;;;;;;0.98;0.40;;;25.20;45.60;;;;;;5030892;28;20657;-60
2022/11/01 00:18:36;;;;;;;4.85;0.20;;;25.50;45.60;;;;;;5039227;28;20390;-60
2022/11/01 00:21:03;;;;;;;0.47;0.20;;;25.60;45.10;;;;;;5031932;28;20104;-59
2022/11/01 00:23:30;;;;;;;0.38;0.10;;;25.80;45.90;;;;;;5031702;28;20056;-59
2022/11/01 00:26:01;;;;;;;0.28;0.10;;;25.70;43.00;;;;;;5042269;28;20052;-60
2022/11/01 00:28:29;;;;;;;3.33;0.30;;;25.70;42.70;;;;;;5039039;28;20048;-59
2022/11/01 00:30:57;;;;;;;1.65;0.17;;;25.40;42.10;;;;;;5029838;28;20571;-59
2022/11/01 00:33:25;;;;;;;0.25;0.13;;;25.20;43.20;;;;;;5035490;28;20033;-59
2022/11/01 00:35:53;;;;;;;0.20;0.20;;;25.00;42.80;;;;;;5027433;28;20389;-59
2022/11/01 00:38:20;;;;;;;0.28;0.20;;;24.80;42.30;;;;;;5042735;28;20053;-58
2022/11/01 00:40:47;;;;;;;1.85;0.10;;;24.90;43.80;;;;;;5040979;28;20039;-59
2022/11/01 00:43:14;;;;;;;3.38;0.22;;;24.90;42.10;;;;;;5045160;28;20481;-59
2022/11/01 00:45:44;;;;;;;2.13;0.25;;;24.80;41.60;;;;;;5032023;28;20167;-59
2022/11/01 00:48:12;;;;;;;0.80;0.40;;;24.50;42.80;;;;;;5038849;28;20096;-59
2022/11/01 00:50:40;;;;;;;0.47;0.10;;;24.80;46.10;;;;;;5044119;28;20025;-59
2022/11/01 00:53:09;;;;;;;0.10;0.10;;;25.00;44.40;;;;;;5028995;28;20037;-60
2022/11/01 00:55:36;;;;;;;0.10;0.10;;;25.20;44.60;;;;;;5029259;28;20029;-61
2022/11/01 00:58:03;;;;;;;0.25;0.10;;;25.60;44.80;;;;;;5015036;28;20486;-62
2022/11/01 01:00:30;;;;;;;0.32;0.25;;;25.70;42.10;;;;;;5027858;28;20029;-60
2022/11/01 01:02:57;;;;;;;0.17;0.10;;;25.70;42.30;;;;;;5032728;28;20402;-59
2022/11/01 01:05:25;;;;;;;1.65;0.20;;;25.70;42.90;;;;;;5026719;28;20209;-60
2022/11/01 01:07:52;;;;;;;0.98;0.10;;;25.40;42.70;;;;;;5024049;28;20569;-59
2022/11/01 01:10:19;;;;;;;0.43;0.20;;;25.40;44.10;;;;;;5028698;28;20113;-59
2022/11/01 01:12:47;;;;;;;0.28;0.15;;;25.00;43.10;;;;;;5029799;28;20033;-59
2022/11/01 01:15:14;;;;;;;0.55;0.28;;;25.00;43.50;;;;;;5028160;28;20037;-58
2022/11/01 01:17:41;;;;;;;0.30;0.20;;;24.70;43.90;;;;;;5028196;28;20028;-61
2022/11/01 01:20:09;;;;;;;0.20;0.20;;;25.00;43.80;;;;;;5025545;28;20075;-60
2022/11/01 01:22:36;;;;;;;0.30;0.22;;;25.40;44.10;;;;;;5027171;28;20021;-60
2022/11/01 01:25:04;;;;;;;0.45;0.10;;;25.60;43.50;;;;;;5027404;28;20033;-59
2022/11/01 01:27:32;;;;;;;0.55;0.10;;;25.80;42.50;;;;;;5027313;28;20378;-60
2022/11/01 01:29:59;;;;;;;0.10;0.10;;;25.50;42.40;;;;;;5027359;28;20075;-59
2022/11/01 01:32:26;;;;;;;0.38;0.20;;;25.00;43.50;;;;;;5029260;28;20401;-60
2022/11/01 01:34:53;;;;;;;0.38;0.10;;;25.00;44.00;;;;;;5030468;28;20479;-60
2022/11/01 01:37:20;;;;;;;0.20;0.10;;;25.00;44.50;;;;;;5041552;28;20029;-60
2022/11/01 01:39:48;;;;;;;0.22;0.10;;;25.10;44.30;;;;;;5031972;28;20091;-59
2022/11/01 01:42:31;;;;;;;0.57;0.20;;;24.80;43.30;;;;;;5035393;28;20025;-59
2022/11/01 01:44:58;;;;;;;2.00;0.30;;;24.60;43.90;;;;;;5022429;28;20112;-59
2022/11/01 01:47:37;;;;;;;1.75;0.10;;;25.00;44.40;;;;;;5034665;28;20091;-59
2022/11/01 01:50:10;;;;;;;0.10;0.10;;;25.50;42.00;;;;;;5032199;28;20036;-65
2022/11/01 01:52:57;;;;;;;0.50;0.20;;;25.80;44.40;;;;;;5037582;28;20406;-61
2022/11/01 01:55:37;;;;;;;0.38;0.10;;;26.10;43.90;;;;;;5030314;28;20029;-60
2022/11/01 01:58:06;;;;;;;0.10;0.10;;;26.40;42.00;;;;;;5029191;28;20029;-65
2022/11/01 02:00:33;;;;;;;0.05;0.05;;;26.40;42.10;;;;;;5027375;28;20410;-61
2022/11/01 02:03:01;;;;;;;0.52;0.28;;;26.70;45.00;;;;;;5028334;28;20022;-61
2022/11/01 02:05:57;;;;;;;0.10;0.03;;;26.90;43.10;;;;;;5033092;28;20032;-62
2022/11/01 02:08:27;;;;;;;1.88;0.20;;;27.00;43.10;;;;;;5025851;28;20419;-60
2022/11/01 02:11:06;;;;;;;0.13;0.10;;;27.10;42.50;;;;;;5025193;28;20112;-60
2022/11/01 02:13:34;;;;;;;0.10;0.10;;;26.80;43.00;;;;;;5026349;28;20262;-61
2022/11/01 02:16:28;;;;;;;0.15;0.10;;;26.30;42.90;;;;;;5027236;28;20045;-60
2022/11/01 02:18:58;;;;;;;0.17;0.10;;;25.80;44.40;;;;;;5027357;28;20116;-60
2022/11/01 02:21:47;;;;;;;2.15;0.20;;;25.30;44.40;;;;;;5028679;28;20029;-59
2022/11/01 02:24:50;;;;;;;2.92;0.20;;;25.50;46.60;;;;;;5026170;28;20037;-59
2022/11/01 02:27:34;;;;;;;0.80;0.22;;;25.70;46.80;;;;;;5026445;28;20029;-59
2022/11/01 02:30:15;;;;;;;2.23;0.20;;;26.00;47.10;;;;;;5027757;28;20018;-59
2022/11/01 02:32:56;;;;;;;0.10;0.10;;;25.90;46.10;;;;;;5027484;28;20014;-59
2022/11/01 02:36:08;;;;;;;1.60;0.93;;;26.20;47.30;;;;;;5028047;28;20444;-59
2022/11/01 02:38:51;;;;;;;0.70;0.30;;;26.50;48.90;;;;;;5015311;28;20425;-59
2022/11/01 02:41:42;;;;;;;0.40;0.10;;;26.80;47.30;;;;;;5026003;28;20052;-60
2022/11/01 02:44:24;;;;;;;0.10;0.10;;;26.80;42.70;;;;;;5021121;28;20029;-59
2022/11/01 02:47:00;;;;;;;0.10;0.10;;;26.50;43.70;;;;;;5018873;28;20029;-59
2022/11/01 02:49:45;;;;;;;0.10;0.10;;;26.50;44.30;;;;;;5030017;28;20462;-58
2022/11/01 02:52:34;;;;;;;0.30;0.30;;;26.60;42.90;;;;;;5031002;28;20048;-59
2022/11/01 02:55:28;;;;;;;0.43;0.13;;;26.70;44.60;;;;;;5027870;28;20355;-58
2022/11/01 02:57:59;;;;;;;0.15;0.10;;;26.80;44.20;;;;;;5039384;28;20039;-58
2022/11/01 03:00:29;;;;;;;0.75;0.10;;;26.50;44.10;;;;;;5048724;28;20082;-59
2022/11/01 03:03:25;;;;;;;0.52;0.10;;;26.60;43.60;;;;;;5036416;28;20029;-58
2022/11/01 03:06:07;;;;;;;0.10;0.10;;;26.50;43.20;;;;;;5030650;28;20032;-58
2022/11/01 03:08:40;;;;;;;0.25;0.13;;;26.40;42.70;;;;;;5037680;28;20032;-61
2022/11/01 03:11:10;;;;;;;0.40;0.20;;;26.30;44.10;;;;;;5037527;28;20120;-58
2022/11/01 03:13:55;;;;;;;0.17;0.10;;;26.40;43.50;;;;;;5028690;28;20108;-60
2022/11/01 03:16:25;;;;;;;0.65;0.10;;;26.30;43.70;;;;;;5029732;28;20022;-59
2022/11/01 03:19:20;;;;;;;0.17;0.17;;;26.30;42.60;;;;;;5033607;28;20040;-59
2022/11/01 03:21:52;;;;;;;0.30;0.10;;;26.00;44.50;;;;;;5029551;28;20678;-59
2022/11/01 03:24:32;;;;;;;0.10;0.10;;;25.90;45.50;;;;;;5046814;28;20136;-60
2022/11/01 03:27:10;;;;;;;0.10;0.10;;;25.90;45.80;;;;;;5030807;28;20040;-59
2022/11/01 03:29:39;;;;;;;1.38;0.22;;;25.80;46.30;;;;;;5032020;28;20036;-58
2022/11/01 03:32:07;;;;;;;0.35;0.15;;;25.70;43.80;;;;;;5045159;28;20021;-59
2022/11/01 03:34:37;;;;;;;0.70;0.20;;;25.60;45.70;;;;;;5031311;28;20036;-59
2022/11/01 03:37:10;;;;;;;0.30;0.20;;;25.70;45.30;;;;;;5031058;28;20029;-61
2022/11/01 03:39:46;;;;;;;0.10;0.10;;;25.80;43.50;;;;;;5043484;28;20037;-59
2022/11/01 03:42:19;;;;;;;0.43;0.35;;;25.70;43.40;;;;;;5032369;28;20018;-58
2022/11/01 03:44:55;;;;;;;1.00;0.10;;;25.50;43.60;;;;;;5046006;28;20072;-59
2022/11/01 03:47:22;;;;;;;1.23;0.20;;;25.60;43.70;;;;;;5037652;28;20040;-59
2022/11/01 03:50:13;;;;;;;0.77;0.40;;;25.50;43.90;;;;;;5042361;28;20044;-58
2022/11/01 03:52:40;;;;;;;0.95;0.20;;;25.20;44.50;;;;;;5028128;28;20474;-59
2022/11/01 03:55:17;;;;;;;1.58;0.35;;;25.10;44.90;;;;;;5030484;28;20079;-60
2022/11/01 03:57:49;;;;;;;0.10;0.10;;;25.40;45.90;;;;;;5031808;28;20034;-59
2022/11/01 04:00:22;;;;;;;0.50;0.20;;;25.50;44.40;;;;;;5029340;28;20033;-60
2022/11/01 04:02:51;;;;;;;0.45;0.17;;;25.70;44.90;;;;;;5027200;28;20380;-60
2022/11/01 04:05:19;;;;;;;0.60;0.30;;;25.80;43.60;;;;;;5038170;28;20030;-61
2022/11/01 04:07:47;;;;;;;0.55;0.20;;;25.90;43.20;;;;;;5041676;28;20032;-59
2022/11/01 04:10:14;;;;;;;0.30;0.30;;;25.80;42.80;;;;;;5029192;28;20025;-58
2022/11/01 04:12:45;;;;;;;0.10;0.10;;;25.70;42.30;;;;;;5036800;28;20428;-58
2022/11/01 04:20:52;;;;;;;3.05;0.10;;;24.50;43.80;;;;;;5032247;28;20102;-59
2022/11/01 04:23:19;;;;;;;3.35;0.38;;;24.30;44.90;;;;;;5040332;28;20044;-59
2022/11/01 04:25:47;;;;;;;0.17;0.17;;;24.20;44.90;;;;;;5029639;28;20031;-59
2022/11/01 04:28:15;;;;;;;1.45;0.20;;;24.00;45.10;;;;;;5033485;28;20473;-59
2022/11/01 04:30:42;;;;;;;0.10;0.10;;;23.60;46.40;;;;;;5029487;28;20394;-59
2022/11/01 04:33:10;;;;;;;0.45;0.20;;;23.30;47.20;;;;;;5029718;28;20505;-59
2022/11/01 04:35:37;;;;;;;0.63;0.10;;;23.00;46.40;;;;;;5041007;28;20048;-59
2022/11/01 04:38:05;;;;;;;0.50;0.50;;;22.70;47.10;;;;;;5029770;28;20041;-59
2022/11/01 04:40:33;;;;;;;0.52;0.30;;;22.40;48.50;;;;;;5035097;28;20111;-58
2022/11/01 04:43:00;;;;;;;0.32;0.20;;;22.00;50.10;;;;;;5040580;28;20014;-59
2022/11/01 04:45:28;;;;;;;0.10;0.10;;;21.60;49.80;;;;;;5032484;28;20029;-59
2022/11/01 04:48:12;;;;;;;0.93;0.32;;;21.30;52.60;;;;;;5032751;28;20072;-58
2022/11/01 04:50:40;;;;;;;1.13;0.60;;;20.70;59.10;;;;;;5023334;28;20018;-58
2022/11/01 04:53:09;;;;;;;2.00;0.35;;;19.90;62.20;;;;;;5031666;28;20049;-59
2022/11/01 04:55:36;;;;;;;2.75;0.82;;;19.60;63.30;;;;;;5030000;28;20054;-60
2022/11/01 04:58:05;;;;;;;0.60;0.30;;;19.30;64.00;;;;;;5029931;28;20033;-58
2022/11/01 05:00:33;;;;;;;3.20;0.32;;;19.40;62.90;;;;;;5045589;28;20025;-58
2022/11/01 05:03:03;;;;;;;0.65;0.20;;;19.70;62.00;;;;;;5022289;28;20092;-58
2022/11/01 05:05:30;;;;;;;0.17;0.17;;;19.90;58.40;;;;;;5030595;28;20060;-58
2022/11/01 05:08:09;;;;;;;5.85;0.55;;;20.00;56.40;;;;;;5044900;28;20516;-57
2022/11/01 05:10:40;;;;;;;0.55;0.20;;;19.70;56.90;;;;;;5019849;28;20028;-58
2022/11/01 05:13:08;;;;;;;2.78;0.68;;;19.40;58.20;;;;;;5029954;28;20037;-58
2022/11/01 05:15:35;;;;;;;1.23;0.20;;;19.20;58.50;;;;;;5036402;28;20486;-58
2022/11/01 05:18:03;;;;;;;0.73;0.30;;;19.20;59.50;;;;;;5033480;28;20091;-59
2022/11/01 05:20:30;;;;;;;0.38;0.10;;;19.30;60.30;;;;;;5041254;28;20033;-59
2022/11/01 05:23:02;;;;;;;2.28;0.73;;;19.40;61.90;;;;;;5041802;28;20029;-58
2022/11/01 05:25:30;;;;;;;1.85;0.43;;;19.50;61.80;;;;;;5028002;28;20104;-58
2022/11/01 05:28:06;;;;;;;2.47;0.22;;;19.70;62.40;;;;;;5026940;28;20018;-57
2022/11/01 05:30:35;;;;;;;0.80;0.32;;;19.70;61.90;;;;;;5023588;28;20025;-58
2022/11/01 05:33:04;;;;;;;1.27;0.40;;;19.80;62.60;;;;;;5041238;28;20028;-60
2022/11/01 05:35:32;;;;;;;4.13;0.30;;;19.40;62.70;;;;;;5036828;28;20482;-60
2022/11/01 05:38:02;;;;;;;4.10;0.30;;;19.20;63.00;;;;;;5044952;28;20028;-60
2022/11/01 05:40:30;;;;;;;2.90;0.22;;;18.80;65.50;;;;;;5032973;28;20051;-60
2022/11/01 05:42:57;;;;;;;0.57;0.20;;;18.60;67.10;;;;;;5026692;28;20294;-61
2022/11/01 05:45:25;;;;;;;0.82;0.38;;;18.50;67.20;;;;;;5030625;28;20100;-59
2022/11/01 05:47:52;;;;;;;2.22;0.30;;;18.30;67.70;;;;;;5028296;28;20457;-58
2022/11/01 05:50:20;;;;;;;1.77;0.30;;;18.30;68.00;;;;;;5028104;28;20360;-58
2022/11/01 05:52:48;;;;;;;0.77;0.20;;;18.20;67.90;;;;;;5023893;28;20544;-59
2022/11/01 05:55:16;;;;;;;0.38;0.13;;;18.20;69.90;;;;;;5025418;28;20468;-59
2022/11/01 05:57:43;;;;;;;0.65;0.13;;;18.20;70.70;;;;;;5024911;28;20021;-59
2022/11/01 06:00:11;;;;;;;0.43;0.20;;;18.20;69.70;;;;;;5026784;28;20104;-59
2022/11/01 06:02:38;;;;;;;0.57;0.20;;;18.30;68.40;;;;;;5027630;28;20108;-59
2022/11/01 06:05:06;;;;;;;0.20;0.20;;;18.50;67.30;;;;;;5028914;28;20033;-60
2022/11/01 06:07:35;;;;;;;0.20;0.20;;;18.80;66.70;;;;;;5038075;28;20045;-59
2022/11/01 06:10:04;;;;;;;1.77;0.20;;;19.10;66.80;;;;;;5033030;28;20084;-59
2022/11/01 06:12:31;;;;;;;0.43;0.20;;;19.40;66.50;;;;;;5047057;28;20155;-59
2022/11/01 06:14:58;;;;;;;3.75;0.38;;;19.60;65.10;;;;;;5040678;28;20486;-58
2022/11/01 06:17:26;;;;;;;0.47;0.20;;;19.80;64.10;;;;;;5034129;28;20025;-60
2022/11/01 06:19:53;;;;;;;0.40;0.22;;;19.90;63.40;;;;;;5043188;28;20025;-59
2022/11/01 06:22:20;;;;;;;1.10;0.22;;;20.00;63.10;;;;;;5032270;28;20533;-60
2022/11/01 06:24:47;;;;;;;0.20;0.20;;;20.00;64.40;;;;;;5042031;28;20026;-60
2022/11/01 06:27:15;;;;;;;0.13;0.13;;;20.30;60.70;;;;;;5038168;28;20083;-60
2022/11/01 06:29:42;;;;;;;0.45;0.10;;;20.50;60.20;;;;;;5035853;28;20048;-61
2022/11/01 06:32:09;;;;;;;0.25;0.20;;;20.80;61.20;;;;;;5040832;28;20025;-61
2022/11/01 06:34:36;;;;;;;0.32;0.20;;;21.00;58.50;;;;;;5048603;28;20438;-61
2022/11/01 06:37:04;;;;;;;0.90;0.15;;;21.00;58.50;;;;;;5040778;28;20025;-60
2022/11/01 06:39:31;;;;;;;0.47;0.20;;;21.00;55.70;;;;;;5049293;28;20074;-59
2022/11/01 06:41:58;;;;;;;0.40;0.20;;;21.00;54.40;;;;;;5032388;28;20029;-60
2022/11/01 06:44:25;;;;;;;0.10;0.10;;;20.90;53.10;;;;;;5035060;28;20095;-61
2022/11/01 06:46:54;;;;;;;0.45;0.28;;;20.50;54.30;;;;;;5048805;28;20428;-61
2022/11/01 06:49:21;;;;;;;0.10;0.05;;;20.50;54.90;;;;;;5032733;28;20017;-60
2022/11/01 06:51:49;;;;;;;4.75;0.30;;;20.50;54.70;;;;;;5038640;28;20736;-61
2022/11/01 06:54:16;;;;;;;1.65;0.13;;;20.30;55.10;;;;;;5049008;28;20028;-61
2022/11/01 06:56:45;;;;;;;0.90;0.22;;;20.20;56.00;;;;;;5037371;28;20021;-59
2022/11/01 06:59:15;;;;;;;0.15;0.10;;;20.20;56.20;;;;;;5049577;28;20366;-59
2022/11/01 07:01:43;;;;;;;0.43;0.20;;;20.10;56.10;;;;;;5039554;28;20094;-59
2022/11/01 07:04:10;;;;;;;0.35;0.20;;;19.90;57.10;;;;;;5048715;28;20392;-59
2022/11/01 07:06:37;;;;;;;0.82;0.30;;;19.70;57.30;;;;;;5035033;28;20048;-59
2022/11/01 07:09:05;;;;;;;0.13;0.13;;;19.40;57.20;;;;;;5042598;28;20045;-59
2022/11/01 07:11:32;;;;;;;1.02;0.38;;;19.30;56.90;;;;;;5033006;28;20033;-59
2022/11/01 07:14:00;;;;;;;0.10;0.10;;;19.40;57.80;;;;;;5030620;28;20025;-60
2022/11/01 07:16:27;;;;;;;1.17;0.30;;;19.50;57.00;;;;;;5030096;28;20500;-60
2022/11/01 07:18:54;;;;;;;3.08;0.43;;;19.70;57.10;;;;;;5026465;28;20041;-59
2022/11/01 07:21:21;;;;;;;0.88;0.43;;;19.80;56.90;;;;;;5030604;28;20120;-60
2022/11/01 07:23:51;;;;;;;0.45;0.20;;;19.90;56.10;;;;;;5029374;28;20052;-59
2022/11/01 07:26:18;;;;;;;0.47;0.30;;;19.80;52.20;;;;;;5032197;28;20486;-59
2022/11/01 07:28:46;;;;;;;0.20;0.20;;;19.70;51.50;;;;;;5029258;28;20033;-61
2022/11/01 07:31:13;;;;;;;1.15;0.28;;;19.70;50.90;;;;;;5034748;28;20803;-60
2022/11/01 07:33:40;;;;;;;1.35;0.30;;;19.70;51.60;;;;;;5031430;28;20029;-60
2022/11/01 07:36:08;;;;;;;0.20;0.20;;;19.70;52.60;;;;;;5034002;28;20041;-59
2022/11/01 07:38:36;;;;;;;0.93;0.30;;;19.70;52.60;;;;;;5025125;28;20068;-62
2022/11/01 07:41:04;;;;;;;2.78;0.35;;;19.70;52.90;;;;;;5028659;28;20064;-60
2022/11/01 07:43:33;;;;;;;0.22;0.20;;;19.70;52.30;;;;;;5029227;28;20022;-61
2022/11/01 07:46:02;;;;;;;0.80;0.30;;;19.60;51.20;;;;;;5031481;28;20084;-61
2022/11/01 07:48:30;;;;;;;0.50;0.40;;;19.50;52.80;;;;;;5032612;28;20043;-60
2022/11/01 07:50:57;;;;;;;1.67;0.30;;;19.30;54.90;;;;;;5025549;28;20029;-59
2022/11/01 07:53:24;;;;;;;3.67;0.32;;;19.00;55.90;;;;;;5033332;28;20041;-57
2022/11/01 07:55:52;;;;;;;1.15;0.40;;;18.70;57.30;;;;;;5029561;28;20560;-59
2022/11/01 07:58:19;;;;;;;0.32;0.30;;;18.50;58.50;;;;;;5026943;28;20033;-59
2022/11/01 08:00:46;;;;;;;0.30;0.20;;;18.30;60.10;;;;;;5024113;28;20441;-59
2022/11/01 08:03:16;;;;;;;1.08;0.30;;;18.10;68.80;;;;;;5029337;28;20520;-56
2022/11/01 08:05:46;;;;;;;4.30;0.32;;;17.70;80.60;;;;;;5026544;28;20040;-56
2022/11/01 08:08:15;;;;;;;0.10;0.10;;;17.20;80.80;;;;;;5027652;28;20056;-57
2022/11/01 08:10:43;;;;;;;0.10;0.10;;;16.80;78.30;;;;;;5026795;28;20556;-57
2022/11/01 08:13:19;;;;;;;1.15;0.20;;;16.50;77.70;;;;;;5027663;28;20030;-58
2022/11/01 08:15:48;;;;;;;1.25;0.10;;;16.20;79.90;;;;;;5025164;28;20018;-57
2022/11/01 08:18:17;;;;;;;0.45;0.20;;;16.00;80.70;;;;;;5032957;28;20029;-58
2022/11/01 08:20:44;;;;;;;0.38;0.20;;;15.90;78.60;;;;;;5026637;28;20532;-59
2022/11/01 08:23:11;;;;;;;0.20;0.20;;;15.80;79.00;;;;;;5035369;28;20025;-58
2022/11/01 08:25:39;;;;;;;0.68;0.30;;;15.80;77.10;;;;;;5031196;28;20026;-57
2022/11/01 08:28:10;;;;;;;0.55;0.20;;;15.70;77.10;;;;;;5031934;28;20537;-59
2022/11/01 08:30:39;;;;;;;0.20;0.10;;;15.70;78.10;;;;;;5034026;28;20096;-57
2022/11/01 08:33:06;;;;;;;1.95;0.45;;;15.60;77.70;;;;;;5030092;28;20090;-57
2022/11/01 08:35:34;;;;;;;0.28;0.28;;;15.50;78.50;;;;;;5027443;28;20574;-56
2022/11/01 08:38:02;;;;;;;0.40;0.20;;;15.40;78.60;;;;;;5027453;28;20111;-57
2022/11/01 08:40:31;;;;;;;0.90;0.13;;;15.30;79.30;;;;;;5030187;28;20037;-59
2022/11/01 08:42:59;;;;;;;0.10;0.10;;;15.20;79.80;;;;;;5030619;28;20025;-57
2022/11/01 08:45:26;;;;;;;0.25;0.17;;;15.10;80.80;;;;;;5028947;28;20069;-59
2022/11/01 08:47:58;;;;;;;0.77;0.20;;;15.00;81.70;;;;;;5031329;28;20066;-59
2022/11/01 08:50:25;;;;;;;0.93;0.30;;;15.00;82.20;;;;;;5032466;28;20032;-57
2022/11/01 08:52:53;;;;;;;1.20;0.13;;;15.00;83.20;;;;;;5033479;28;20164;-58
2022/11/01 08:55:21;;;;;;;1.00;0.30;;;15.00;83.20;;;;;;5034788;28;20034;-58
2022/11/01 08:57:48;;;;;;;0.22;0.10;;;14.90;84.20;;;;;;5026718;28;22349;-59
2022/11/01 09:00:17;;;;;;;0.90;0.30;;;14.90;84.40;;;;;;5027787;28;20393;-58
2022/11/01 09:02:45;;;;;;;0.20;0.20;;;14.90;84.50;;;;;;5031511;28;20025;-59
2022/11/01 09:05:16;;;;;;;0.47;0.10;;;14.90;84.10;;;;;;5032318;28;20115;-58
2022/11/01 09:07:43;;;;;;;0.52;0.25;;;14.90;85.80;;;;;;5029119;28;20022;-58
2022/11/01 09:10:11;;;;;;;0.38;0.10;;;14.80;85.10;;;;;;5043354;28;20579;-60
2022/11/01 09:12:38;;;;;;;0.77;0.30;;;14.90;84.00;;;;;;5028725;28;20546;-59
2022/11/01 09:15:06;;;;;;;1.30;0.40;;;14.80;85.30;;;;;;5037967;28;20034;-58
2022/11/01 09:17:34;;;;;;;0.40;0.20;;;14.80;85.00;;;;;;5031278;28;20104;-59
2022/11/01 09:20:03;;;;;;;0.73;0.40;;;14.80;85.50;;;;;;5027549;28;20316;-58
2022/11/01 09:22:30;;;;;;;0.57;0.13;;;14.90;85.10;;;;;;5029107;28;20021;-60
2022/11/01 09:24:57;;;;;;;0.85;0.68;;;15.00;84.30;;;;;;5038095;28;20397;-59
2022/11/01 09:27:25;;;;;;;0.80;0.40;;;15.00;84.40;;;;;;5028941;28;20056;-60
2022/11/01 09:29:53;;;;;;;1.38;0.28;;;15.00;83.70;;;;;;5037075;28;20033;-59
2022/11/01 09:32:20;;;;;;;1.00;0.20;;;15.00;84.20;;;;;;5029007;28;20488;-59
2022/11/01 09:34:50;;;;;;;0.73;0.30;;;15.00;84.60;;;;;;5031095;28;20017;-62
2022/11/01 09:37:17;;;;;;;0.10;0.10;;;15.10;84.80;;;;;;5030668;28;20022;-59
2022/11/01 09:39:44;;;;;;;0.10;0.10;;;15.10;83.30;;;;;;5024757;28;20033;-58
2022/11/01 09:42:38;;;;;;;1.65;0.28;;;15.20;82.70;;;;;;5027166;28;20034;-57
2022/11/01 09:45:18;;;;;;;1.23;0.30;;;15.20;82.10;;;;;;5033839;28;20043;-57
2022/11/01 09:47:49;;;;;;;1.05;0.30;;;15.20;83.00;;;;;;5025366;28;20025;-58
2022/11/01 09:50:32;;;;;;;1.38;0.10;;;15.10;81.90;;;;;;5027151;28;20021;-57
2022/11/01 09:53:06;;;;;;;0.25;0.13;;;15.10;83.20;;;;;;5027812;28;20045;-57
2022/11/01 09:56:04;;;;;;;0.03;0.03;;;15.00;82.90;;;;;;5038458;28;20089;-58
2022/11/01 09:58:53;;;;;;;0.43;0.20;;;14.90;82.70;;;;;;5024514;28;20727;-57
2022/11/01 10:01:39;;;;;;;0.10;0.10;;;14.90;83.10;;;;;;5025409;28;20033;-58
2022/11/01 10:04:25;;;;;;;1.88;0.63;;;14.90;83.10;;;;;;5028060;28;20110;-58
2022/11/01 10:07:08;;;;;;;0.20;0.10;;;14.80;83.80;;;;;;5029757;28;20061;-57
2022/11/01 10:09:48;;;;;;;0.60;0.30;;;14.80;85.00;;;;;;5029085;28;20104;-57
2022/11/01 10:12:31;;;;;;;1.20;0.32;;;14.70;85.70;;;;;;5027976;28;20033;-56
2022/11/01 10:15:25;;;;;;;0.43;0.10;;;14.60;85.80;;;;;;5039425;28;20074;-59
2022/11/01 10:17:54;;;;;;;1.13;0.13;;;14.60;86.50;;;;;;5031333;28;20026;-57
2022/11/01 10:20:29;;;;;;;0.73;0.43;;;14.50;86.60;;;;;;5032584;28;20037;-58
2022/11/01 10:22:58;;;;;;;0.20;0.20;;;14.50;87.20;;;;;;5024620;28;20080;-59
2022/11/01 10:25:35;;;;;;;0.00;0.00;;;14.50;87.40;;;;;;5028013;28;20033;-60
2022/11/01 10:28:07;;;;;;;1.17;0.20;;;14.50;87.40;;;;;;5026654;28;20025;-56
2022/11/01 10:30:51;;;;;;;0.20;0.20;;;14.50;87.40;;;;;;5025186;28;20045;-57
2022/11/01 10:33:43;;;;;;;0.32;0.20;;;14.50;86.20;;;;;;5026944;28;20033;-58
2022/11/01 10:36:22;;;;;;;1.38;0.25;;;14.40;87.10;;;;;;5035278;28;20474;-56
2022/11/01 10:39:20;;;;;;;0.10;0.10;;;14.40;87.10;;;;;;5037965;28;20037;-59
2022/11/01 10:41:52;;;;;;;0.10;0.10;;;14.40;85.10;;;;;;5039404;28;20555;-57
2022/11/01 10:44:45;;;;;;;0.10;0.10;;;14.40;83.10;;;;;;5039702;28;20033;-59
2022/11/01 10:47:20;;;;;;;0.10;0.10;;;14.40;82.20;;;;;;5027167;28;20038;-57
2022/11/01 10:49:56;;;;;;;0.20;0.10;;;14.30;81.80;;;;;;5020422;28;20640;-58
2022/11/01 10:52:31;;;;;;;0.10;0.10;;;14.20;81.20;;;;;;5039912;28;20053;-58
2022/11/01 10:55:00;;;;;;;0.20;0.10;;;14.20;80.90;;;;;;5034315;28;20087;-58
2022/11/01 10:58:05;;;;;;;0.10;0.10;;;14.10;80.50;;;;;;5031242;28;20084;-57
2022/11/01 11:00:36;;;;;;;0.10;0.10;;;14.00;78.80;;;;;;5026993;28;20146;-57
2022/11/01 11:03:17;;;;;;;0.10;0.10;;;13.90;79.60;;;;;;5043194;28;20033;-59
2022/11/01 11:05:45;;;;;;;1.65;0.10;;;13.90;78.50;;;;;;5012158;28;20033;-56
2022/11/01 11:08:17;;;;;;;0.20;0.20;;;13.80;78.00;;;;;;5026706;28;20394;-57
2022/11/01 11:10:45;;;;;;;0.13;0.10;;;13.70;78.50;;;;;;5027253;28;20048;-58
2022/11/01 11:13:17;;;;;;;0.20;0.10;;;13.60;78.40;;;;;;5023869;28;20078;-59
2022/11/01 11:15:53;;;;;;;0.65;0.20;;;13.60;78.90;;;;;;5025586;28;20176;-58
2022/11/01 11:18:25;;;;;;;0.10;0.10;;;13.50;78.80;;;;;;5023858;28;20052;-58
2022/11/01 11:20:59;;;;;;;1.85;0.30;;;13.40;79.30;;;;;;5027675;28;20905;-58
2022/11/01 11:23:35;;;;;;;0.30;0.20;;;13.40;79.30;;;;;;5030704;28;20063;-57
2022/11/01 11:26:24;;;;;;;0.10;0.10;;;13.30;79.90;;;;;;5047773;28;20261;-59
2022/11/01 11:28:56;;;;;;;0.30;0.10;;;13.30;79.80;;;;;;5031691;28;20074;-58
2022/11/01 11:31:24;;;;;;;0.55;0.28;;;13.20;80.10;;;;;;5040645;28;20076;-58
2022/11/01 11:33:59;;;;;;;0.25;0.10;;;13.10;80.40;;;;;;5034524;28;20428;-58
2022/11/01 11:36:42;;;;;;;0.00;0.00;;;13.10;80.10;;;;;;5031208;28;20025;-58
2022/11/01 11:39:31;;;;;;;0.00;0.00;;;13.00;80.60;;;;;;5031728;28;20477;-58
2022/11/01 11:42:13;;;;;;;0.30;0.30;;;12.90;80.90;;;;;;5025923;28;20033;-58
2022/11/01 11:44:46;;;;;;;0.20;0.20;;;12.90;82.20;;;;;;5028866;28;20017;-57
2022/11/01 11:47:34;;;;;;;0.10;0.10;;;12.80;81.30;;;;;;5028204;28;20029;-58
2022/11/01 11:50:16;;;;;;;0.15;0.15;;;12.80;81.50;;;;;;5025287;28;20068;-59
2022/11/01 11:52:43;;;;;;;0.10;0.10;;;12.70;81.90;;;;;;5027287;28;20511;-59
2022/11/01 11:55:33;;;;;;;0.32;0.10;;;12.70;82.20;;;;;;5038611;28;20033;-58
2022/11/01 11:58:01;;;;;;;0.10;0.10;;;12.60;81.90;;;;;;5040661;28;20022;-58
2022/11/01 12:00:29;;;;;;;0.10;0.10;;;12.50;82.40;;;;;;5030300;28;20103;-58
2022/11/01 12:03:00;;;;;;;0.20;0.20;;;12.40;82.80;;;;;;5026670;28;20029;-58
2022/11/01 12:05:28;;;;;;;0.25;0.20;;;12.30;82.90;;;;;;5031996;28;20103;-58
2022/11/01 12:07:56;;;;;;;0.30;0.20;;;12.30;83.90;;;;;;5034533;28;20026;-58
2022/11/01 12:10:45;;;;;;;0.17;0.17;;;12.30;84.00;;;;;;5031180;28;20061;-60
2022/11/01 12:13:34;;;;;;;0.25;0.15;;;12.20;84.40;;;;;;5043025;28;20464;-60
2022/11/01 12:16:07;;;;;;;1.02;0.35;;;12.20;84.70;;;;;;5039225;28;20029;-57
2022/11/01 12:18:34;;;;;;;0.10;0.10;;;12.20;85.50;;;;;;5025903;28;20111;-59
2022/11/01 12:21:02;;;;;;;0.10;0.10;;;12.20;85.30;;;;;;5032012;28;20053;-58
2022/11/01 12:23:35;;;;;;;0.00;0.00;;;12.20;85.90;;;;;;5041829;28;20025;-59
2022/11/01 12:26:07;;;;;;;0.10;0.10;;;12.20;85.60;;;;;;5044642;28;20029;-59
2022/11/01 12:28:57;;;;;;;0.10;0.10;;;12.20;85.00;;;;;;5029211;28;20028;-58
2022/11/01 12:31:25;;;;;;;0.32;0.20;;;12.30;85.40;;;;;;5031043;28;20056;-58
2022/11/01 12:34:16;;;;;;;0.08;0.08;;;12.30;84.70;;;;;;5028551;28;20072;-57
2022/11/01 12:37:15;;;;;;;0.10;0.10;;;12.30;84.80;;;;;;5030572;28;20052;-58
2022/11/01 12:40:12;;;;;;;0.00;0.00;;;12.30;85.10;;;;;;5036435;28;20434;-61
2022/11/01 12:42:40;;;;;;;0.10;0.10;;;12.40;84.80;;;;;;5029588;28;20381;-56
2022/11/01 12:45:21;;;;;;;0.10;0.10;;;12.30;85.00;;;;;;5042703;28;20028;-58
2022/11/01 12:48:05;;;;;;;0.00;0.00;;;12.30;85.80;;;;;;5035672;28;20014;-57
2022/11/01 12:50:37;;;;;;;0.00;0.00;;;12.30;85.40;;;;;;5027867;28;20053;-60
2022/11/01 12:53:14;;;;;;;0.10;0.10;;;12.30;85.20;;;;;;5036878;28;20075;-58
2022/11/01 12:55:42;;;;;;;0.10;0.10;;;12.20;85.40;;;;;;5034718;28;20021;-58
2022/11/01 12:58:17;;;;;;;0.10;0.10;;;12.20;85.30;;;;;;5032807;28;20026;-56
2022/11/01 13:00:52;;;;;;;;;;;12.30;85.80;;;;;;5037371;28;20055;-57
2022/11/01 13:03:29;;;;;;;0.20;0.20;;;12.30;85.40;;;;;;5036122;28;19955;-57
2022/11/01 13:06:05;;;;;;;0.20;0.20;;;12.30;84.50;;;;;;5038115;28;20037;-58
2022/11/01 13:08:35;;;;;;;0.10;0.10;;;12.30;85.10;;;;;;5046057;28;20017;-58
2022/11/01 13:11:13;;;;;;;0.22;0.20;;;12.30;84.80;;;;;;5027591;28;20033;-59
2022/11/01 13:14:00;;;;;;;0.90;0.38;;;12.30;84.10;;;;;;5032904;28;20016;-58
2022/11/01 13:16:35;;;;;;;0.30;0.20;;;12.20;84.60;;;;;;5031101;28;20053;-57
2022/11/01 13:19:27;;;;;;;0.15;0.13;;;12.10;85.70;;;;;;5030994;28;20259;-57
2022/11/01 13:22:18;;;;;;;0.17;0.17;;;12.10;85.50;;;;;;5035095;28;20017;-57